createdAt,value
2018-04-07T00:00:02.108Z,4.70
2018-04-07T00:00:35.602Z,4.70
2018-04-07T00:01:09.155Z,4.70
2018-04-07T00:01:43.631Z,4.70
2018-04-07T00:02:17.403Z,4.60
2018-04-07T00:02:51.268Z,4.70
2018-04-07T00:03:25.823Z,4.70
2018-04-07T00:03:59.649Z,4.70
2018-04-07T00:04:33.790Z,4.70
2018-04-07T00:05:07.539Z,4.60
2018-04-07T00:05:41.250Z,4.70
2018-04-07T00:06:14.987Z,4.70
2018-04-07T00:06:48.751Z,4.70
2018-04-07T00:07:22.478Z,4.60
2018-04-07T00:07:56.195Z,4.70
2018-04-07T00:08:30.674Z,4.60
2018-04-07T00:09:03.489Z,4.60
2018-04-07T00:09:37.644Z,4.70
2018-04-07T00:10:11.431Z,4.60
2018-04-07T00:10:45.161Z,4.70
2018-04-07T00:11:19.636Z,4.70
2018-04-07T00:11:53.375Z,4.60
2018-04-07T00:12:27.091Z,4.70
2018-04-07T00:13:00.811Z,4.70
2018-04-07T00:13:34.521Z,4.60
2018-04-07T00:14:08.237Z,4.70
2018-04-07T00:14:41.960Z,4.70
2018-04-07T00:15:15.708Z,4.60
2018-04-07T00:15:50.200Z,4.70
2018-04-07T00:16:23.918Z,4.60
2018-04-07T00:16:58.400Z,4.70
2018-04-07T00:17:32.120Z,4.60
2018-04-07T00:18:05.836Z,4.70
2018-04-07T00:18:39.548Z,4.70
2018-04-07T00:19:13.269Z,4.70
2018-04-07T00:19:47.756Z,4.70
2018-04-07T00:20:21.287Z,4.70
2018-04-07T00:20:55.006Z,4.70
2018-04-07T00:21:28.726Z,4.70
2018-04-07T00:22:02.447Z,4.70
2018-04-07T00:22:36.699Z,4.70
2018-04-07T00:23:10.199Z,4.70
2018-04-07T00:23:43.683Z,4.70
2018-04-07T00:24:17.384Z,4.70
2018-04-07T00:24:51.105Z,4.70
2018-04-07T00:25:25.616Z,4.70
2018-04-07T00:26:00.124Z,4.70
2018-04-07T00:26:34.607Z,4.70
2018-04-07T00:27:08.088Z,4.70
2018-04-07T00:27:41.800Z,4.70
2018-04-07T00:28:16.286Z,4.70
2018-04-07T00:28:50.016Z,4.70
2018-04-07T00:29:23.732Z,4.70
2018-04-07T00:29:57.408Z,4.70
2018-04-07T00:30:31.147Z,4.70
2018-04-07T00:31:04.865Z,4.70
2018-04-07T00:31:39.333Z,4.80
2018-04-07T00:32:13.060Z,4.70
2018-04-07T00:32:47.541Z,4.80
2018-04-07T00:33:21.444Z,4.80
2018-04-07T00:33:55.163Z,4.80
2018-04-07T00:34:28.874Z,4.80
2018-04-07T00:35:02.593Z,4.80
2018-04-07T00:35:36.330Z,4.80
2018-04-07T00:36:10.806Z,4.80
2018-04-07T00:36:44.520Z,4.80
2018-04-07T00:37:19.020Z,4.80
2018-04-07T00:37:52.514Z,4.80
2018-04-07T00:38:26.989Z,4.80
2018-04-07T00:39:00.711Z,4.80
2018-04-07T00:39:35.183Z,4.80
2018-04-07T00:40:08.666Z,4.80
2018-04-07T00:40:42.180Z,4.80
2018-04-07T00:41:15.897Z,4.80
2018-04-07T00:41:50.392Z,4.80
2018-04-07T00:42:24.865Z,4.80
2018-04-07T00:42:58.356Z,4.80
2018-04-07T00:43:31.832Z,4.80
2018-04-07T00:44:05.555Z,4.70
2018-04-07T00:44:39.278Z,4.80
2018-04-07T00:45:12.998Z,4.70
2018-04-07T00:45:46.758Z,4.80
2018-04-07T00:46:20.480Z,4.80
2018-04-07T00:46:54.191Z,4.70
2018-04-07T00:47:27.679Z,4.80
2018-04-07T00:48:01.388Z,4.80
2018-04-07T00:48:35.646Z,4.80
2018-04-07T00:49:09.380Z,4.70
2018-04-07T00:49:43.190Z,4.80
2018-04-07T00:50:17.676Z,4.80
2018-04-07T00:50:51.428Z,4.80
2018-04-07T00:51:25.207Z,4.80
2018-04-07T00:51:58.922Z,4.80
2018-04-07T00:52:43.810Z,4.80
2018-04-07T00:53:18.297Z,4.80
2018-04-07T00:53:52.036Z,4.80
2018-04-07T00:54:26.296Z,4.80
2018-04-07T00:55:00.011Z,4.80
2018-04-07T00:55:34.490Z,4.80
2018-04-07T00:56:08.245Z,4.80
2018-04-07T00:56:41.956Z,4.80
2018-04-07T00:57:15.456Z,4.80
2018-04-07T00:57:49.148Z,4.70
2018-04-07T00:58:22.633Z,4.80
2018-04-07T00:58:56.335Z,4.80
2018-04-07T00:59:30.054Z,4.70
2018-04-07T01:00:03.862Z,4.70
2018-04-07T01:00:37.350Z,4.70
2018-04-07T01:01:11.112Z,4.70
2018-04-07T01:01:45.608Z,4.70
2018-04-07T01:02:19.406Z,4.70
2018-04-07T01:02:53.883Z,4.70
2018-04-07T01:03:27.609Z,4.70
2018-04-07T01:04:02.089Z,4.70
2018-04-07T01:04:35.804Z,4.70
2018-04-07T01:05:09.501Z,4.70
2018-04-07T01:05:43.764Z,4.70
2018-04-07T01:06:17.500Z,4.70
2018-04-07T01:06:51.991Z,4.70
2018-04-07T01:07:25.706Z,4.70
2018-04-07T01:07:59.428Z,4.70
2018-04-07T01:08:33.164Z,4.70
2018-04-07T01:09:06.236Z,4.70
2018-04-07T01:09:39.954Z,4.70
2018-04-07T01:10:14.427Z,4.70
2018-04-07T01:10:48.136Z,4.70
2018-04-07T01:11:22.668Z,4.70
2018-04-07T01:11:56.379Z,4.70
2018-04-07T01:12:29.876Z,4.70
2018-04-07T01:13:03.486Z,4.70
2018-04-07T01:13:37.190Z,4.70
2018-04-07T01:14:50.994Z,4.60
2018-04-07T01:15:24.722Z,4.70
2018-04-07T01:15:59.190Z,4.70
2018-04-07T01:16:32.938Z,4.60
2018-04-07T01:17:07.416Z,4.60
2018-04-07T01:17:41.130Z,4.60
2018-04-07T01:18:15.616Z,4.60
2018-04-07T01:18:49.335Z,4.60
2018-04-07T01:19:23.691Z,4.60
2018-04-07T01:19:57.416Z,4.60
2018-04-07T01:20:31.892Z,4.60
2018-04-07T01:21:05.596Z,4.60
2018-04-07T01:21:39.341Z,4.60
2018-04-07T01:22:13.054Z,4.60
2018-04-07T01:22:46.772Z,4.60
2018-04-07T01:23:21.030Z,4.60
2018-04-07T01:23:54.744Z,4.60
2018-04-07T01:24:28.454Z,4.60
2018-04-07T01:25:02.188Z,4.60
2018-04-07T01:25:35.902Z,4.60
2018-04-07T01:26:09.626Z,4.60
2018-04-07T01:26:43.392Z,4.60
2018-04-07T01:27:17.110Z,4.60
2018-04-07T01:27:50.827Z,4.60
2018-04-07T01:28:25.308Z,4.60
2018-04-07T01:28:59.060Z,4.60
2018-04-07T01:29:32.778Z,4.60
2018-04-07T01:30:06.280Z,4.60
2018-04-07T01:30:40.004Z,4.60
2018-04-07T01:31:13.802Z,4.60
2018-04-07T01:31:47.565Z,4.60
2018-04-07T01:32:21.278Z,4.60
2018-04-07T01:32:55.012Z,4.60
2018-04-07T01:33:28.722Z,4.60
2018-04-07T01:34:02.424Z,4.60
2018-04-07T01:34:36.140Z,4.60
2018-04-07T01:35:09.849Z,4.60
2018-04-07T01:35:43.686Z,4.60
2018-04-07T01:36:17.394Z,4.60
2018-04-07T01:36:51.902Z,4.60
2018-04-07T01:37:25.623Z,4.60
2018-04-07T01:37:59.338Z,4.70
2018-04-07T01:38:33.048Z,4.70
2018-04-07T01:39:06.433Z,4.60
2018-04-07T01:39:39.926Z,4.60
2018-04-07T01:40:13.428Z,4.60
2018-04-07T01:40:47.896Z,4.60
2018-04-07T01:41:21.606Z,4.60
2018-04-07T01:41:55.118Z,4.60
2018-04-07T01:42:29.376Z,4.60
2018-04-07T01:43:03.102Z,4.60
2018-04-07T01:43:37.588Z,4.60
2018-04-07T01:44:11.342Z,4.60
2018-04-07T01:44:45.050Z,4.60
2018-04-07T01:45:18.778Z,4.60
2018-04-07T01:45:53.253Z,4.60
2018-04-07T01:46:26.986Z,4.60
2018-04-07T01:47:00.727Z,4.60
2018-04-07T01:47:34.438Z,4.60
2018-04-07T01:48:08.144Z,4.60
2018-04-07T01:48:41.860Z,4.60
2018-04-07T01:49:16.344Z,4.60
2018-04-07T01:49:50.056Z,4.60
2018-04-07T01:50:24.570Z,4.60
2018-04-07T01:50:58.452Z,4.60
2018-04-07T01:51:32.938Z,4.60
2018-04-07T01:52:06.686Z,4.60
2018-04-07T01:52:40.404Z,4.60
2018-04-07T01:53:14.132Z,4.60
2018-04-07T01:53:47.836Z,4.60
2018-04-07T01:54:22.306Z,4.60
2018-04-07T01:54:56.032Z,4.60
2018-04-07T01:55:30.506Z,4.60
2018-04-07T01:56:04.228Z,4.60
2018-04-07T01:56:38.718Z,4.60
2018-04-07T01:57:12.454Z,4.60
2018-04-07T01:57:46.170Z,4.60
2018-04-07T01:58:19.893Z,4.60
2018-04-07T01:58:53.610Z,4.60
2018-04-07T01:59:28.098Z,4.60
2018-04-07T02:00:01.831Z,4.60
2018-04-07T02:00:35.592Z,4.60
2018-04-07T02:01:10.074Z,4.60
2018-04-07T02:01:43.484Z,4.60
2018-04-07T02:02:17.994Z,4.60
2018-04-07T02:02:52.478Z,4.60
2018-04-07T02:03:26.195Z,4.60
2018-04-07T02:04:00.675Z,4.60
2018-04-07T02:04:34.396Z,4.60
2018-04-07T02:05:08.554Z,4.60
2018-04-07T02:05:42.290Z,4.60
2018-04-07T02:06:16.767Z,4.60
2018-04-07T02:06:50.578Z,4.60
2018-04-07T02:07:25.196Z,4.50
2018-04-07T02:07:59.668Z,4.60
2018-04-07T02:08:33.370Z,4.50
2018-04-07T02:09:06.422Z,4.60
2018-04-07T02:09:40.135Z,4.60
2018-04-07T02:10:13.850Z,4.50
2018-04-07T02:10:48.337Z,4.50
2018-04-07T02:11:22.051Z,4.50
2018-04-07T02:11:56.548Z,4.50
2018-04-07T02:12:31.074Z,4.50
2018-04-07T02:13:05.546Z,4.50
2018-04-07T02:13:39.254Z,4.50
2018-04-07T02:14:12.960Z,4.50
2018-04-07T02:14:47.440Z,4.50
2018-04-07T02:15:21.159Z,4.50
2018-04-07T02:15:55.632Z,4.50
2018-04-07T02:16:29.332Z,4.50
2018-04-07T02:17:03.040Z,4.50
2018-04-07T02:17:37.562Z,4.50
2018-04-07T02:18:16.695Z,4.50
2018-04-07T02:18:50.404Z,4.50
2018-04-07T02:19:24.149Z,4.50
2018-04-07T02:19:57.850Z,4.50
2018-04-07T02:20:32.326Z,4.50
2018-04-07T02:21:05.719Z,4.50
2018-04-07T02:21:39.433Z,4.50
2018-04-07T02:22:13.935Z,4.50
2018-04-07T02:22:48.462Z,4.50
2018-04-07T02:23:22.189Z,4.40
2018-04-07T02:23:55.899Z,4.50
2018-04-07T02:24:29.616Z,4.50
2018-04-07T02:25:03.841Z,4.50
2018-04-07T02:25:37.553Z,4.40
2018-04-07T02:26:11.278Z,4.40
2018-04-07T02:26:44.980Z,4.40
2018-04-07T02:27:18.696Z,4.40
2018-04-07T02:27:52.431Z,4.40
2018-04-07T02:28:26.139Z,4.40
2018-04-07T02:28:59.855Z,4.40
2018-04-07T02:29:34.327Z,4.40
2018-04-07T02:30:08.065Z,4.40
2018-04-07T02:30:41.784Z,4.40
2018-04-07T02:31:15.518Z,4.40
2018-04-07T02:31:49.251Z,4.40
2018-04-07T02:32:22.631Z,4.40
2018-04-07T02:32:56.383Z,4.40
2018-04-07T02:33:29.902Z,4.40
2018-04-07T02:34:03.293Z,4.40
2018-04-07T02:34:36.992Z,4.40
2018-04-07T02:35:10.715Z,4.40
2018-04-07T02:35:44.426Z,4.40
2018-04-07T02:36:18.173Z,4.40
2018-04-07T02:36:51.907Z,4.40
2018-04-07T02:37:25.627Z,4.40
2018-04-07T02:37:59.377Z,4.40
2018-04-07T02:38:33.087Z,4.40
2018-04-07T02:39:06.927Z,4.40
2018-04-07T02:39:40.658Z,4.30
2018-04-07T02:40:14.582Z,4.40
2018-04-07T02:40:48.316Z,4.30
2018-04-07T02:41:22.045Z,4.40
2018-04-07T02:41:55.425Z,4.40
2018-04-07T02:42:29.348Z,4.40
2018-04-07T02:43:03.349Z,4.40
2018-04-07T02:43:37.086Z,4.30
2018-04-07T02:44:10.797Z,4.30
2018-04-07T02:44:44.516Z,4.30
2018-04-07T02:45:18.233Z,4.30
2018-04-07T02:45:51.975Z,4.30
2018-04-07T02:46:26.458Z,4.30
2018-04-07T02:47:00.177Z,4.30
2018-04-07T02:47:34.654Z,4.30
2018-04-07T02:48:08.397Z,4.30
2018-04-07T02:48:42.135Z,4.30
2018-04-07T02:49:15.849Z,4.30
2018-04-07T02:49:49.585Z,4.30
2018-04-07T02:50:23.331Z,4.30
2018-04-07T02:50:57.201Z,4.30
2018-04-07T02:51:30.940Z,4.30
2018-04-07T02:52:05.607Z,4.30
2018-04-07T02:52:39.329Z,4.20
2018-04-07T02:53:13.870Z,4.30
2018-04-07T02:53:47.587Z,4.20
2018-04-07T02:54:21.321Z,4.30
2018-04-07T02:54:55.801Z,4.20
2018-04-07T02:55:29.520Z,4.20
2018-04-07T02:56:03.871Z,4.20
2018-04-07T02:56:37.363Z,4.20
2018-04-07T02:57:11.119Z,4.20
2018-04-07T02:57:44.844Z,4.30
2018-04-07T02:58:18.599Z,4.20
2018-04-07T02:58:52.327Z,4.20
2018-04-07T02:59:26.048Z,4.20
2018-04-07T02:59:59.770Z,4.20
2018-04-07T03:00:33.515Z,4.30
2018-04-07T03:01:07.262Z,4.20
2018-04-07T03:01:40.989Z,4.30
2018-04-07T03:02:14.721Z,4.20
2018-04-07T03:02:49.211Z,4.20
2018-04-07T03:03:22.968Z,4.20
2018-04-07T03:03:56.696Z,4.20
2018-04-07T03:04:31.179Z,4.20
2018-04-07T03:05:04.579Z,4.20
2018-04-07T03:05:38.307Z,4.30
2018-04-07T03:06:12.796Z,4.30
2018-04-07T03:06:46.527Z,4.20
2018-04-07T03:07:20.238Z,4.30
2018-04-07T03:07:53.971Z,4.20
2018-04-07T03:08:28.494Z,4.20
2018-04-07T03:09:02.988Z,4.30
2018-04-07T03:09:37.482Z,4.20
2018-04-07T03:10:11.211Z,4.30
2018-04-07T03:10:44.933Z,4.20
2018-04-07T03:11:18.661Z,4.30
2018-04-07T03:11:52.383Z,4.20
2018-04-07T03:12:26.109Z,4.30
2018-04-07T03:12:59.497Z,4.30
2018-04-07T03:13:33.239Z,4.30
2018-04-07T03:14:07.729Z,4.20
2018-04-07T03:14:41.469Z,4.20
2018-04-07T03:15:15.167Z,4.20
2018-04-07T03:15:48.887Z,4.20
2018-04-07T03:16:22.609Z,4.20
2018-04-07T03:16:57.092Z,4.30
2018-04-07T03:17:30.837Z,4.20
2018-04-07T03:18:04.584Z,4.20
2018-04-07T03:18:38.333Z,4.30
2018-04-07T03:19:12.051Z,4.20
2018-04-07T03:19:45.785Z,4.20
2018-04-07T03:20:19.503Z,4.20
2018-04-07T03:20:53.217Z,4.30
2018-04-07T03:21:26.955Z,4.20
2018-04-07T03:22:00.673Z,4.30
2018-04-07T03:22:34.163Z,4.30
2018-04-07T03:23:07.671Z,4.30
2018-04-07T03:23:41.422Z,4.30
2018-04-07T03:24:15.141Z,4.30
2018-04-07T03:24:48.856Z,4.30
2018-04-07T03:25:22.577Z,4.30
2018-04-07T03:25:57.068Z,4.30
2018-04-07T03:26:30.779Z,4.30
2018-04-07T03:27:04.539Z,4.30
2018-04-07T03:27:38.257Z,4.30
2018-04-07T03:28:12.755Z,4.30
2018-04-07T03:28:47.275Z,4.30
2018-04-07T03:29:21.790Z,4.30
2018-04-07T03:29:55.513Z,4.30
2018-04-07T03:30:29.237Z,4.20
2018-04-07T03:31:02.967Z,4.20
2018-04-07T03:31:36.698Z,4.20
2018-04-07T03:32:10.425Z,4.30
2018-04-07T03:32:44.915Z,4.30
2018-04-07T03:33:18.639Z,4.20
2018-04-07T03:33:53.145Z,4.20
2018-04-07T03:34:27.642Z,4.30
2018-04-07T03:35:02.133Z,4.20
2018-04-07T03:35:35.855Z,4.20
2018-04-07T03:36:09.579Z,4.30
2018-04-07T03:36:43.299Z,4.20
2018-04-07T03:37:17.029Z,4.20
2018-04-07T03:37:50.753Z,4.20
2018-04-07T03:38:24.464Z,4.20
2018-04-07T03:38:58.211Z,4.20
2018-04-07T03:39:31.933Z,4.20
2018-04-07T03:40:05.669Z,4.20
2018-04-07T03:40:40.153Z,4.20
2018-04-07T03:41:13.879Z,4.20
2018-04-07T03:41:48.346Z,4.20
2018-04-07T03:42:21.839Z,4.20
2018-04-07T03:42:55.321Z,4.20
2018-04-07T03:43:29.034Z,4.20
2018-04-07T03:44:03.545Z,4.20
2018-04-07T03:44:38.029Z,4.20
2018-04-07T03:45:11.765Z,4.20
2018-04-07T03:45:45.250Z,4.20
2018-04-07T03:46:19.501Z,4.20
2018-04-07T03:46:52.988Z,4.20
2018-04-07T03:47:26.711Z,4.20
2018-04-07T03:48:00.951Z,4.20
2018-04-07T03:48:34.441Z,4.20
2018-04-07T03:49:07.620Z,4.20
2018-04-07T03:49:41.339Z,4.20
2018-04-07T03:50:15.055Z,4.20
2018-04-07T03:50:49.307Z,4.20
2018-04-07T03:51:22.783Z,4.20
2018-04-07T03:51:56.501Z,4.20
2018-04-07T03:52:30.222Z,4.20
2018-04-07T03:53:03.943Z,4.20
2018-04-07T03:53:37.671Z,4.20
2018-04-07T03:54:11.443Z,4.20
2018-04-07T03:54:45.160Z,4.20
2018-04-07T03:55:18.887Z,4.20
2018-04-07T03:55:53.385Z,4.20
2018-04-07T03:56:27.102Z,4.20
2018-04-07T03:57:00.810Z,4.20
2018-04-07T03:57:34.528Z,4.20
2018-04-07T03:58:08.247Z,4.20
2018-04-07T03:58:41.980Z,4.20
2018-04-07T03:59:15.739Z,4.20
2018-04-07T03:59:50.223Z,4.20
2018-04-07T04:00:23.720Z,4.20
2018-04-07T04:00:57.423Z,4.20
2018-04-07T04:01:31.919Z,4.20
2018-04-07T04:02:05.659Z,4.20
2018-04-07T04:02:39.387Z,4.20
2018-04-07T04:03:13.096Z,4.20
2018-04-07T04:03:46.577Z,4.20
2018-04-07T04:04:20.093Z,4.20
2018-04-07T04:04:53.601Z,4.20
2018-04-07T04:05:27.101Z,4.20
2018-04-07T04:06:00.622Z,4.20
2018-04-07T04:06:34.335Z,4.20
2018-04-07T04:07:08.808Z,4.20
2018-04-07T04:07:42.519Z,4.20
2018-04-07T04:08:17.003Z,4.20
2018-04-07T04:08:50.732Z,4.20
2018-04-07T04:09:24.479Z,4.20
2018-04-07T04:09:58.198Z,4.20
2018-04-07T04:10:32.677Z,4.20
2018-04-07T04:11:06.389Z,4.20
2018-04-07T04:11:40.127Z,4.20
2018-04-07T04:12:13.854Z,4.20
2018-04-07T04:12:47.567Z,4.20
2018-04-07T04:13:22.055Z,4.20
2018-04-07T04:13:55.777Z,4.20
2018-04-07T04:14:30.299Z,4.20
2018-04-07T04:15:03.691Z,4.20
2018-04-07T04:15:37.423Z,4.20
2018-04-07T04:16:11.147Z,4.20
2018-04-07T04:16:45.403Z,4.20
2018-04-07T04:17:18.921Z,4.20
2018-04-07T04:17:52.727Z,4.20
2018-04-07T04:18:27.211Z,4.10
2018-04-07T04:19:00.936Z,4.20
2018-04-07T04:19:34.685Z,4.10
2018-04-07T04:20:08.407Z,4.10
2018-04-07T04:20:42.887Z,4.10
2018-04-07T04:21:16.597Z,4.10
2018-04-07T04:21:50.313Z,4.20
2018-04-07T04:22:24.035Z,4.10
2018-04-07T04:22:57.765Z,4.10
2018-04-07T04:23:31.475Z,4.10
2018-04-07T04:24:05.963Z,4.10
2018-04-07T04:24:39.717Z,4.10
2018-04-07T04:25:13.445Z,4.10
2018-04-07T04:25:47.179Z,4.10
2018-04-07T04:26:20.904Z,4.10
2018-04-07T04:26:54.622Z,4.10
2018-04-07T04:27:28.347Z,4.10
2018-04-07T04:28:02.079Z,4.10
2018-04-07T04:28:35.801Z,4.10
2018-04-07T04:29:10.283Z,4.10
2018-04-07T04:29:44.033Z,4.10
2018-04-07T04:30:17.779Z,4.10
2018-04-07T04:30:51.501Z,4.10
2018-04-07T04:31:25.228Z,4.10
2018-04-07T04:31:58.954Z,4.10
2018-04-07T04:32:32.670Z,4.10
2018-04-07T04:33:07.162Z,4.10
2018-04-07T04:33:41.633Z,4.10
2018-04-07T04:34:15.349Z,4.10
2018-04-07T04:34:50.601Z,4.10
2018-04-07T04:35:25.155Z,4.10
2018-04-07T04:35:58.881Z,4.10
2018-04-07T04:36:32.603Z,4.10
2018-04-07T04:37:06.362Z,4.10
2018-04-07T04:37:40.065Z,4.10
2018-04-07T04:38:14.573Z,4.10
2018-04-07T04:38:48.829Z,4.10
2018-04-07T04:39:22.326Z,4.10
2018-04-07T04:39:56.058Z,4.10
2018-04-07T04:40:30.545Z,4.10
2018-04-07T04:41:04.257Z,4.10
2018-04-07T04:41:38.514Z,4.10
2018-04-07T04:42:11.921Z,4.20
2018-04-07T04:42:45.636Z,4.20
2018-04-07T04:43:20.125Z,4.20
2018-04-07T04:43:53.865Z,4.20
2018-04-07T04:44:27.580Z,4.20
2018-04-07T04:45:01.339Z,4.30
2018-04-07T04:45:35.063Z,4.20
2018-04-07T04:46:08.789Z,4.30
2018-04-07T04:46:43.281Z,4.30
2018-04-07T04:47:17.002Z,4.30
2018-04-07T04:47:51.480Z,4.30
2018-04-07T04:48:25.192Z,4.30
2018-04-07T04:48:59.337Z,4.40
2018-04-07T04:49:33.057Z,4.40
2018-04-07T04:50:06.821Z,4.40
2018-04-07T04:50:40.543Z,4.40
2018-04-07T04:51:14.255Z,4.50
2018-04-07T04:51:48.739Z,4.50
2018-04-07T04:52:22.457Z,4.50
2018-04-07T04:52:56.950Z,4.60
2018-04-07T04:53:30.657Z,4.60
2018-04-07T04:54:05.225Z,4.70
2018-04-07T04:54:38.941Z,4.70
2018-04-07T04:55:12.687Z,4.70
2018-04-07T04:55:46.391Z,4.80
2018-04-07T04:56:20.125Z,4.80
2018-04-07T04:56:54.611Z,5.00
2018-04-07T04:57:28.378Z,5.00
2018-04-07T04:58:02.105Z,5.00
2018-04-07T04:58:35.823Z,5.10
2018-04-07T04:59:09.547Z,5.20
2018-04-07T04:59:43.267Z,5.20
2018-04-07T05:00:17.026Z,5.30
2018-04-07T05:00:50.731Z,5.30
2018-04-07T05:01:24.449Z,5.40
2018-04-07T05:01:58.170Z,5.40
2018-04-07T05:02:31.893Z,5.40
2018-04-07T05:03:05.637Z,5.50
2018-04-07T05:03:39.347Z,5.50
2018-04-07T05:04:13.056Z,5.50
2018-04-07T05:04:46.771Z,5.50
2018-04-07T05:05:20.524Z,5.50
2018-04-07T05:05:54.264Z,5.50
2018-04-07T05:06:27.997Z,5.50
2018-04-07T05:07:01.722Z,5.50
2018-04-07T05:07:35.454Z,5.50
2018-04-07T05:08:09.167Z,5.50
2018-04-07T05:08:42.683Z,5.40
2018-04-07T05:09:16.400Z,5.40
2018-04-07T05:09:50.103Z,5.40
2018-04-07T05:10:23.859Z,5.40
2018-04-07T05:10:57.598Z,5.40
2018-04-07T05:11:32.095Z,5.40
2018-04-07T05:12:05.819Z,5.40
2018-04-07T05:12:40.314Z,5.40
2018-04-07T05:13:14.812Z,5.30
2018-04-07T05:13:49.307Z,5.30
2018-04-07T05:14:23.021Z,5.30
2018-04-07T05:14:57.507Z,5.30
2018-04-07T05:15:31.031Z,5.30
2018-04-07T05:16:04.577Z,5.30
2018-04-07T05:16:38.067Z,5.30
2018-04-07T05:17:11.797Z,5.30
2018-04-07T05:17:46.259Z,5.40
2018-04-07T05:18:19.992Z,5.40
2018-04-07T05:18:54.469Z,5.40
2018-04-07T05:19:27.638Z,5.40
2018-04-07T05:20:01.376Z,5.40
2018-04-07T05:20:35.195Z,5.40
2018-04-07T05:21:08.583Z,5.40
2018-04-07T05:21:42.296Z,5.40
2018-04-07T05:22:16.068Z,5.40
2018-04-07T05:22:50.719Z,5.50
2018-04-07T05:23:24.437Z,5.50
2018-04-07T05:23:58.172Z,5.50
2018-04-07T05:24:31.877Z,5.50
2018-04-07T05:25:06.034Z,5.60
2018-04-07T05:25:39.786Z,5.60
2018-04-07T05:26:14.289Z,5.60
2018-04-07T05:26:48.031Z,5.60
2018-04-07T05:27:21.805Z,5.70
2018-04-07T05:27:55.651Z,5.70
2018-04-07T05:28:30.136Z,5.80
2018-04-07T05:29:03.872Z,5.70
2018-04-07T05:29:38.366Z,5.80
2018-04-07T05:30:12.125Z,5.80
2018-04-07T05:30:45.921Z,5.90
2018-04-07T05:31:19.626Z,5.90
2018-04-07T05:31:53.363Z,5.90
2018-04-07T05:32:27.093Z,6.00
2018-04-07T05:33:00.819Z,6.00
2018-04-07T05:33:34.557Z,6.10
2018-04-07T05:34:08.061Z,6.10
2018-04-07T05:34:41.791Z,6.20
2018-04-07T05:35:16.281Z,6.20
2018-04-07T05:35:50.030Z,6.30
2018-04-07T05:36:23.750Z,6.30
2018-04-07T05:36:57.499Z,6.40
2018-04-07T05:37:32.031Z,6.40
2018-04-07T05:38:05.595Z,6.40
2018-04-07T05:38:39.321Z,6.50
2018-04-07T05:39:13.075Z,6.60
2018-04-07T05:39:46.893Z,6.60
2018-04-07T05:40:20.826Z,6.70
2018-04-07T05:40:56.459Z,6.80
2018-04-07T05:41:30.969Z,6.70
2018-04-07T05:42:04.497Z,6.80
2018-04-07T05:42:38.217Z,6.90
2018-04-07T05:43:11.939Z,6.90
2018-04-07T05:43:45.833Z,7.00
2018-04-07T05:44:19.858Z,7.00
2018-04-07T05:44:53.920Z,7.00
2018-04-07T05:45:27.820Z,7.10
2018-04-07T05:46:03.561Z,7.10
2018-04-07T05:46:37.713Z,7.10
2018-04-07T05:47:11.859Z,7.20
2018-04-07T05:47:46.453Z,7.20
2018-04-07T05:48:22.509Z,7.20
2018-04-07T05:48:56.417Z,7.30
2018-04-07T05:49:31.857Z,7.30
2018-04-07T05:50:05.755Z,7.30
2018-04-07T05:50:40.255Z,7.40
2018-04-07T05:51:13.993Z,7.40
2018-04-07T05:51:47.769Z,7.50
2018-04-07T05:52:21.496Z,7.40
2018-04-07T05:52:55.237Z,7.50
2018-04-07T05:53:29.737Z,7.50
2018-04-07T05:54:04.223Z,7.50
2018-04-07T05:54:37.939Z,7.50
2018-04-07T05:55:12.419Z,7.50
2018-04-07T05:55:46.146Z,7.50
2018-04-07T05:56:20.653Z,7.50
2018-04-07T05:56:55.125Z,7.40
2018-04-07T05:57:28.831Z,7.40
2018-04-07T05:58:02.548Z,7.40
2018-04-07T05:58:36.272Z,7.50
2018-04-07T05:59:10.031Z,7.50
2018-04-07T05:59:44.511Z,7.40
2018-04-07T06:00:17.827Z,7.40
2018-04-07T06:00:52.310Z,7.40
2018-04-07T06:01:26.849Z,7.40
2018-04-07T06:02:00.554Z,7.40
2018-04-07T06:02:34.279Z,7.40
2018-04-07T06:03:07.996Z,7.40
2018-04-07T06:03:42.483Z,7.40
2018-04-07T06:04:16.209Z,7.40
2018-04-07T06:04:50.703Z,7.30
2018-04-07T06:05:24.166Z,7.30
2018-04-07T06:05:57.882Z,7.30
2018-04-07T06:06:31.622Z,7.30
2018-04-07T06:07:05.340Z,7.20
2018-04-07T06:07:39.062Z,7.20
2018-04-07T06:08:13.553Z,7.20
2018-04-07T06:08:47.252Z,7.20
2018-04-07T06:09:20.636Z,7.10
2018-04-07T06:09:55.115Z,7.10
2018-04-07T06:10:28.828Z,7.10
2018-04-07T06:11:03.344Z,7.10
2018-04-07T06:11:37.863Z,7.10
2018-04-07T06:12:12.341Z,7.10
2018-04-07T06:12:45.727Z,7.10
2018-04-07T06:13:19.453Z,7.10
2018-04-07T06:13:53.193Z,7.10
2018-04-07T06:14:26.916Z,7.10
2018-04-07T06:15:01.391Z,7.10
2018-04-07T06:15:35.111Z,7.10
2018-04-07T06:16:08.818Z,7.10
2018-04-07T06:16:43.328Z,7.00
2018-04-07T06:17:17.817Z,7.10
2018-04-07T06:17:51.525Z,7.00
2018-04-07T06:18:25.025Z,7.00
2018-04-07T06:18:58.503Z,7.00
2018-04-07T06:19:32.231Z,7.00
2018-04-07T06:20:05.297Z,7.00
2018-04-07T06:20:38.787Z,7.00
2018-04-07T06:21:12.293Z,7.00
2018-04-07T06:21:46.074Z,7.00
2018-04-07T06:22:19.788Z,7.10
2018-04-07T06:22:53.522Z,7.10
2018-04-07T06:23:28.186Z,7.10
2018-04-07T06:24:01.895Z,7.10
2018-04-07T06:24:36.389Z,7.10
2018-04-07T06:25:10.126Z,7.10
2018-04-07T06:25:43.857Z,7.10
2018-04-07T06:26:17.575Z,7.10
2018-04-07T06:26:52.121Z,7.10
2018-04-07T06:27:25.911Z,7.20
2018-04-07T06:27:59.612Z,7.10
2018-04-07T06:28:33.340Z,7.20
2018-04-07T06:29:07.061Z,7.20
2018-04-07T06:29:41.541Z,7.20
2018-04-07T06:30:15.259Z,7.20
2018-04-07T06:30:49.759Z,7.20
2018-04-07T06:31:24.254Z,7.20
2018-04-07T06:31:58.014Z,7.20
2018-04-07T06:32:31.734Z,7.30
2018-04-07T06:33:05.486Z,7.30
2018-04-07T06:33:39.208Z,7.30
2018-04-07T06:34:12.921Z,7.30
2018-04-07T06:34:47.401Z,7.30
2018-04-07T06:35:21.117Z,7.30
2018-04-07T06:35:54.837Z,7.30
2018-04-07T06:36:28.563Z,7.30
2018-04-07T06:37:02.330Z,7.30
2018-04-07T06:37:36.053Z,7.30
2018-04-07T06:38:09.765Z,7.30
2018-04-07T06:38:43.486Z,7.40
2018-04-07T06:39:17.220Z,7.40
2018-04-07T06:39:50.941Z,7.40
2018-04-07T06:40:24.640Z,7.40
2018-04-07T06:40:58.339Z,7.40
2018-04-07T06:41:32.833Z,7.50
2018-04-07T06:42:06.578Z,7.40
2018-04-07T06:42:40.296Z,7.40
2018-04-07T06:43:14.026Z,7.50
2018-04-07T06:43:48.508Z,7.50
2018-04-07T06:44:22.243Z,7.50
2018-04-07T06:44:55.966Z,7.50
2018-04-07T06:45:29.691Z,7.50
2018-04-07T06:46:04.194Z,7.60
2018-04-07T06:46:38.471Z,7.60
2018-04-07T06:47:12.249Z,7.60
2018-04-07T06:47:46.107Z,7.60
2018-04-07T06:48:20.598Z,7.60
2018-04-07T06:48:55.097Z,7.60
2018-04-07T06:49:28.812Z,7.60
2018-04-07T06:50:02.539Z,7.60
2018-04-07T06:50:36.282Z,7.60
2018-04-07T06:51:10.786Z,7.70
2018-04-07T06:51:45.299Z,7.70
2018-04-07T06:52:19.817Z,7.70
2018-04-07T06:52:54.307Z,7.70
2018-04-07T06:53:28.802Z,7.70
2018-04-07T06:54:02.516Z,7.70
2018-04-07T06:54:37.012Z,7.80
2018-04-07T06:55:11.508Z,7.80
2018-04-07T06:55:45.248Z,7.80
2018-04-07T06:56:18.979Z,7.80
2018-04-07T06:56:52.808Z,7.80
2018-04-07T06:57:27.339Z,7.80
2018-04-07T06:58:01.064Z,7.80
2018-04-07T06:58:34.788Z,7.80
2018-04-07T06:59:08.536Z,7.80
2018-04-07T06:59:42.306Z,7.80
2018-04-07T07:00:16.038Z,7.80
2018-04-07T07:00:49.755Z,7.80
2018-04-07T07:01:23.508Z,7.80
2018-04-07T07:01:57.245Z,7.90
2018-04-07T07:02:31.766Z,7.90
2018-04-07T07:03:06.285Z,7.90
2018-04-07T07:03:40.004Z,7.90
2018-04-07T07:04:13.720Z,7.90
2018-04-07T07:04:47.225Z,7.90
2018-04-07T07:05:21.496Z,8.00
2018-04-07T07:05:55.224Z,8.00
2018-04-07T07:06:29.726Z,8.10
2018-04-07T07:07:03.456Z,8.10
2018-04-07T07:07:37.208Z,8.20
2018-04-07T07:08:10.931Z,8.20
2018-04-07T07:08:44.427Z,8.20
2018-04-07T07:09:18.155Z,8.30
2018-04-07T07:09:51.893Z,8.30
2018-04-07T07:10:26.391Z,8.40
2018-04-07T07:10:59.838Z,8.40
2018-04-07T07:11:33.343Z,8.40
2018-04-07T07:12:07.064Z,8.40
2018-04-07T07:12:40.810Z,8.50
2018-04-07T07:13:14.525Z,8.50
2018-04-07T07:13:48.235Z,8.60
2018-04-07T07:14:21.960Z,8.60
2018-04-07T07:14:55.683Z,8.60
2018-04-07T07:15:29.392Z,8.70
2018-04-07T07:16:02.843Z,8.70
2018-04-07T07:16:36.339Z,8.80
2018-04-07T07:17:10.064Z,8.80
2018-04-07T07:17:44.566Z,8.80
2018-04-07T07:18:18.838Z,8.90
2018-04-07T07:18:52.527Z,8.80
2018-04-07T07:19:26.748Z,8.90
2018-04-07T07:20:00.209Z,8.90
2018-04-07T07:20:33.928Z,8.90
2018-04-07T07:21:07.151Z,8.90
2018-04-07T07:21:40.643Z,8.90
2018-04-07T07:22:14.411Z,9.00
2018-04-07T07:22:48.158Z,9.00
2018-04-07T07:23:22.172Z,9.00
2018-04-07T07:23:56.673Z,9.00
2018-04-07T07:24:30.166Z,9.10
2018-04-07T07:25:04.424Z,9.10
2018-04-07T07:25:37.901Z,9.10
2018-04-07T07:26:11.638Z,9.20
2018-04-07T07:26:45.134Z,9.20
2018-04-07T07:27:18.360Z,9.20
2018-04-07T07:27:51.836Z,9.20
2018-04-07T07:28:25.568Z,9.20
2018-04-07T07:28:59.292Z,9.20
2018-04-07T07:29:33.777Z,9.30
2018-04-07T07:30:07.500Z,9.30
2018-04-07T07:30:40.985Z,9.30
2018-04-07T07:31:14.190Z,9.40
2018-04-07T07:31:47.933Z,9.40